Needville, Texas
Current Conditions -  °F | °C
As of 1:53 PM on Thursday 29 Jan 2015 (Local Time) from KSGR Reporting Station
Scattered Clouds Scattered Clouds  
Wind Chill: 74°   Ceiling: Unl
Heat Index: 74°   Visibility: 10mi
Dew Point: 58°   Wind: 8mph
Humidity: 57%   Direction: 230°SW
Pressure: 30.2"   Gusts: NA
Location:  29.4°N, 95.84°W
Report Text: KSGR 291953Z 23007KT 10SM SCT033 23/14 A3020 RMK AO2 SLP229 T02330144
Loading
Personal Weather Stations






























Interactive Weather Map New forecast layout! Learn more

10-Day Weather Forecast

Advertisements
Track Severe Weather on mobile